Time;durP1;ratioP1;P1;durP2;ratioP2;P2;SDS_P1;SDS_P2;PMS_P1;PMS_P2;Temp;Humidity;BMP_temperature;BMP_pressure;BME280_temperature;BME280_humidity;BME280_pressure;Samples;Min_cycle;Max_cycle;Signal;HPM_P1;HPM_P2
2023/04/30 00:00:48;;;;;;;3.00;2.80;;;12.30;99.90;;;;;;5091420;28;20522;-52
2023/04/30 00:03:14;;;;;;;3.50;2.97;;;12.20;99.90;;;;;;5091535;28;20479;-52
2023/04/30 00:05:43;;;;;;;5.30;3.80;;;12.20;99.90;;;;;;5091416;28;20525;-51
2023/04/30 00:08:10;;;;;;;5.20;4.17;;;12.20;99.90;;;;;;5090986;28;20538;-55
2023/04/30 00:10:36;;;;;;;4.83;4.33;;;12.20;99.90;;;;;;5090992;28;20440;-52
2023/04/30 00:13:03;;;;;;;4.50;4.10;;;12.20;99.90;;;;;;5091465;28;20526;-51
2023/04/30 00:15:30;;;;;;;4.80;4.30;;;12.20;99.90;;;;;;5091077;28;20554;-52
2023/04/30 00:17:57;;;;;;;4.80;4.10;;;12.20;99.90;;;;;;5090617;28;20504;-52
2023/04/30 00:20:24;;;;;;;6.97;6.27;;;12.00;99.90;;;;;;5090955;28;20961;-51
2023/04/30 00:22:52;;;;;;;5.90;5.30;;;11.90;99.90;;;;;;5090622;28;20466;-52
2023/04/30 00:25:19;;;;;;;6.60;5.87;;;11.80;99.90;;;;;;5091028;28;20534;-52
2023/04/30 00:27:46;;;;;;;5.37;4.87;;;11.80;99.90;;;;;;5091006;28;20473;-52
2023/04/30 00:30:13;;;;;;;6.27;4.37;;;11.90;99.90;;;;;;5090827;28;20483;-55
2023/04/30 00:32:40;;;;;;;4.70;4.30;;;11.80;99.90;;;;;;5090810;28;20595;-51
2023/04/30 00:35:08;;;;;;;5.90;4.37;;;11.90;99.90;;;;;;5090812;28;20563;-52
2023/04/30 00:37:34;;;;;;;4.90;4.40;;;11.90;99.90;;;;;;5094272;28;20475;-52
2023/04/30 00:40:03;;;;;;;5.77;5.07;;;12.00;99.90;;;;;;5094863;28;20504;-52
2023/04/30 00:42:30;;;;;;;5.53;4.90;;;11.90;99.90;;;;;;5095020;28;20501;-52
2023/04/30 00:44:57;;;;;;;5.13;4.50;;;12.00;99.90;;;;;;5094681;28;20483;-51
2023/04/30 00:47:24;;;;;;;5.20;4.73;;;11.90;99.90;;;;;;5094865;28;20545;-52
2023/04/30 00:49:51;;;;;;;4.40;4.00;;;11.90;99.90;;;;;;5094700;28;20478;-51
2023/04/30 00:52:18;;;;;;;4.63;4.03;;;12.00;99.90;;;;;;5095090;28;20446;-52
2023/04/30 00:54:45;;;;;;;4.80;4.40;;;12.00;99.90;;;;;;5094818;28;20539;-52
2023/04/30 00:57:15;;;;;;;4.40;4.00;;;12.00;99.90;;;;;;5094552;28;20993;-52
2023/04/30 00:59:42;;;;;;;4.40;4.00;;;11.90;99.90;;;;;;5094749;28;20523;-52
2023/04/30 01:02:09;;;;;;;5.00;4.50;;;11.80;99.90;;;;;;5094661;28;20930;-52
2023/04/30 01:04:36;;;;;;;5.70;5.10;;;11.80;99.90;;;;;;5094549;28;20486;-53
2023/04/30 01:07:03;;;;;;;5.67;4.70;;;11.70;99.90;;;;;;5094546;28;20547;-52
2023/04/30 01:09:30;;;;;;;5.30;4.47;;;11.80;99.90;;;;;;5094718;28;20605;-52
2023/04/30 01:12:08;;;;;;;5.70;5.20;;;11.90;99.90;;;;;;5094278;28;20529;-52
2023/04/30 01:14:51;;;;;;;5.63;5.07;;;12.10;99.90;;;;;;5094308;28;20474;-51
2023/04/30 01:17:25;;;;;;;4.97;4.53;;;12.10;99.90;;;;;;5094260;28;20561;-52
2023/04/30 01:19:54;;;;;;;8.70;7.90;;;12.00;99.90;;;;;;5094480;28;20527;-52
2023/04/30 01:22:37;;;;;;;14.30;12.90;;;11.70;99.90;;;;;;5093985;28;20453;-53
2023/04/30 01:25:24;;;;;;;7.30;6.60;;;11.70;99.90;;;;;;5094109;28;20817;-51
2023/04/30 01:28:06;;;;;;;8.80;5.43;;;11.80;99.90;;;;;;5093945;28;20459;-51
2023/04/30 01:30:34;;;;;;;6.23;5.73;;;11.90;99.90;;;;;;5093096;28;20533;-52
2023/04/30 01:33:01;;;;;;;6.43;5.20;;;12.00;99.90;;;;;;5094126;28;20485;-52
2023/04/30 01:35:44;;;;;;;5.10;4.70;;;12.10;99.90;;;;;;5094113;28;20513;-51
2023/04/30 01:38:18;;;;;;;6.40;5.80;;;12.10;99.90;;;;;;5094225;28;20461;-51
2023/04/30 01:40:53;;;;;;;6.43;5.70;;;12.20;99.90;;;;;;5094438;28;20507;-52
2023/04/30 01:43:32;;;;;;;6.20;5.70;;;12.10;99.90;;;;;;5094015;28;20534;-51
2023/04/30 01:46:08;;;;;;;6.67;6.07;;;12.00;99.90;;;;;;5093409;28;20463;-51
2023/04/30 01:48:43;;;;;;;7.57;6.63;;;11.90;99.90;;;;;;5093068;28;20893;-52
2023/04/30 01:51:19;;;;;;;7.53;6.83;;;12.00;99.90;;;;;;5093955;28;20478;-51
2023/04/30 01:53:46;;;;;;;7.77;7.07;;;11.80;99.90;;;;;;5093425;28;20533;-52
2023/04/30 01:56:27;;;;;;;7.93;7.23;;;11.60;99.90;;;;;;5093468;28;20486;-52
2023/04/30 01:58:55;;;;;;;9.17;7.67;;;11.70;99.90;;;;;;5093337;28;20553;-52
2023/04/30 02:01:27;;;;;;;9.10;8.20;;;11.80;99.90;;;;;;5093651;28;20526;-52
2023/04/30 02:03:54;;;;;;;8.87;8.07;;;11.90;99.90;;;;;;5093862;28;20447;-52
2023/04/30 02:06:21;;;;;;;8.30;7.60;;;12.00;99.90;;;;;;5093478;28;20525;-52
2023/04/30 02:08:48;;;;;;;8.53;7.73;;;12.00;99.90;;;;;;5093430;28;20807;-52
2023/04/30 02:11:15;;;;;;;9.00;8.20;;;12.00;99.90;;;;;;5093628;28;20485;-51
2023/04/30 02:13:42;;;;;;;8.63;7.80;;;12.00;99.90;;;;;;5093434;28;20530;-52
2023/04/30 02:16:10;;;;;;;9.83;8.83;;;12.00;99.90;;;;;;5093718;28;20561;-51
2023/04/30 02:18:37;;;;;;;9.37;8.47;;;12.00;99.90;;;;;;5093826;28;20471;-51
2023/04/30 02:21:04;;;;;;;11.30;10.10;;;11.80;99.90;;;;;;5092955;28;20551;-54
2023/04/30 02:23:31;;;;;;;10.40;9.30;;;11.80;99.90;;;;;;5092969;28;20451;-51
2023/04/30 02:25:58;;;;;;;10.70;8.77;;;11.90;99.90;;;;;;5093604;28;20968;-52
2023/04/30 02:28:25;;;;;;;9.77;8.77;;;11.80;99.90;;;;;;5092669;28;20902;-51
2023/04/30 02:30:52;;;;;;;10.73;9.43;;;11.80;99.90;;;;;;5093018;28;20530;-51
2023/04/30 02:33:20;;;;;;;10.13;9.07;;;11.70;99.90;;;;;;5093059;28;20530;-52
2023/04/30 02:35:47;;;;;;;10.53;8.57;;;11.70;99.90;;;;;;5093341;28;20562;-52
2023/04/30 02:38:14;;;;;;;9.17;8.17;;;11.80;99.90;;;;;;5092651;28;20608;-51
2023/04/30 02:40:41;;;;;;;11.60;9.57;;;11.90;99.90;;;;;;5092982;28;20504;-52
2023/04/30 02:43:08;;;;;;;9.87;8.90;;;11.80;99.90;;;;;;5092627;28;20458;-52
2023/04/30 02:45:35;;;;;;;12.30;9.57;;;11.80;99.90;;;;;;5092407;28;20559;-53
2023/04/30 02:48:02;;;;;;;9.37;8.47;;;11.80;99.90;;;;;;5092823;28;20560;-52
2023/04/30 02:50:30;;;;;;;9.23;8.10;;;11.90;99.90;;;;;;5092478;28;20891;-51
2023/04/30 02:52:57;;;;;;;9.33;8.43;;;11.90;99.90;;;;;;5092622;28;20472;-51
2023/04/30 02:55:24;;;;;;;8.03;7.23;;;11.80;99.90;;;;;;5092477;28;20479;-52
2023/04/30 02:57:51;;;;;;;10.13;8.57;;;11.50;99.90;;;;;;5092132;28;20607;-51
2023/04/30 03:00:17;;;;;;;9.40;8.50;;;11.60;99.90;;;;;;5092545;28;20529;-53
2023/04/30 03:02:45;;;;;;;9.30;8.40;;;11.70;99.90;;;;;;5092941;28;20528;-52
2023/04/30 03:05:12;;;;;;;8.10;7.30;;;11.80;99.90;;;;;;5092408;28;20443;-54
2023/04/30 03:07:40;;;;;;;9.57;7.80;;;11.70;99.90;;;;;;5092385;28;20554;-52
2023/04/30 03:10:08;;;;;;;8.33;7.53;;;11.80;99.90;;;;;;5091758;28;20478;-52
2023/04/30 03:12:35;;;;;;;8.30;7.50;;;11.80;99.90;;;;;;5092027;28;20467;-52
2023/04/30 03:15:02;;;;;;;8.40;7.60;;;11.90;99.90;;;;;;5092440;28;20532;-52
2023/04/30 03:17:29;;;;;;;8.23;7.43;;;11.90;99.90;;;;;;5092783;28;20486;-51
2023/04/30 03:19:56;;;;;;;8.50;7.67;;;11.70;99.90;;;;;;5091449;28;20525;-52
2023/04/30 03:22:25;;;;;;;8.50;7.70;;;11.80;99.90;;;;;;5091547;28;20477;-53
2023/04/30 03:24:53;;;;;;;9.40;8.50;;;11.90;99.90;;;;;;5092059;28;20447;-51
2023/04/30 03:27:20;;;;;;;8.00;7.30;;;12.00;99.90;;;;;;5092261;28;20495;-52
2023/04/30 03:29:47;;;;;;;7.87;7.07;;;12.00;99.90;;;;;;5091800;28;20486;-52
2023/04/30 03:32:14;;;;;;;7.87;7.17;;;12.10;99.90;;;;;;5091933;28;20479;-51
2023/04/30 03:34:41;;;;;;;7.70;6.90;;;12.00;99.90;;;;;;5092173;28;20926;-52
2023/04/30 03:37:08;;;;;;;6.43;5.83;;;12.00;99.90;;;;;;5091511;28;20935;-52
2023/04/30 03:39:35;;;;;;;7.70;7.00;;;12.10;99.90;;;;;;5091879;28;20522;-51
2023/04/30 03:42:03;;;;;;;8.10;7.23;;;12.00;99.90;;;;;;5092089;28;20468;-52
2023/04/30 03:44:30;;;;;;;7.97;7.20;;;12.00;99.90;;;;;;5091585;28;20523;-52
2023/04/30 03:46:57;;;;;;;8.67;7.87;;;12.00;99.90;;;;;;5091090;28;20502;-53
2023/04/30 03:49:24;;;;;;;9.27;8.27;;;11.90;99.90;;;;;;5092117;28;20448;-55
2023/04/30 03:51:51;;;;;;;9.33;8.43;;;11.90;99.90;;;;;;5091397;28;20508;-53
2023/04/30 03:54:17;;;;;;;8.40;7.47;;;12.00;99.90;;;;;;5091819;28;20530;-53
2023/04/30 03:56:44;;;;;;;8.70;7.37;;;12.00;99.90;;;;;;5091345;28;21059;-51
2023/04/30 03:59:13;;;;;;;7.60;6.80;;;11.90;99.90;;;;;;5076907;28;20531;-50
2023/04/30 04:01:40;;;;;;;41.47;28.37;;;12.00;99.90;;;;;;5071336;28;20450;-51
2023/04/30 04:04:07;;;;;;;9.77;8.77;;;12.00;99.90;;;;;;5071123;28;20972;-50
2023/04/30 04:06:34;;;;;;;8.90;8.00;;;12.00;99.90;;;;;;5071338;28;20547;-51
2023/04/30 04:09:01;;;;;;;10.70;8.97;;;11.90;99.90;;;;;;5070791;28;20547;-52
2023/04/30 04:11:27;;;;;;;9.57;8.00;;;11.80;99.90;;;;;;5070777;28;20848;-51
2023/04/30 04:13:54;;;;;;;9.60;8.70;;;11.70;99.90;;;;;;5071413;28;20546;-50
2023/04/30 04:16:23;;;;;;;9.57;8.57;;;11.80;99.90;;;;;;5070744;28;20817;-51
2023/04/30 04:18:49;;;;;;;8.60;7.70;;;11.80;99.90;;;;;;5070116;28;20998;-51
2023/04/30 04:21:16;;;;;;;9.03;8.13;;;11.90;99.90;;;;;;5070903;28;21057;-50
2023/04/30 04:23:43;;;;;;;10.53;8.23;;;11.90;99.90;;;;;;5070429;28;20548;-52
2023/04/30 04:26:11;;;;;;;9.20;8.30;;;11.80;99.90;;;;;;5071082;28;20531;-50
2023/04/30 04:28:38;;;;;;;9.60;8.60;;;11.90;99.90;;;;;;5070755;28;20993;-51
2023/04/30 04:31:06;;;;;;;10.60;9.23;;;11.80;99.90;;;;;;5070408;28;20455;-51
2023/04/30 04:33:35;;;;;;;9.30;8.37;;;11.80;99.90;;;;;;5071103;28;20521;-51
2023/04/30 04:36:02;;;;;;;9.73;8.70;;;11.80;99.90;;;;;;5070658;28;20451;-51
2023/04/30 04:38:29;;;;;;;9.30;8.40;;;11.90;99.90;;;;;;5070620;28;21210;-50
2023/04/30 04:40:56;;;;;;;9.67;8.67;;;11.80;99.90;;;;;;5070576;28;20943;-51
2023/04/30 04:43:23;;;;;;;10.13;8.87;;;11.80;99.90;;;;;;5070537;28;20887;-50
2023/04/30 04:45:51;;;;;;;9.17;8.20;;;11.80;99.90;;;;;;5070591;28;20474;-50
2023/04/30 04:48:18;;;;;;;12.33;8.70;;;11.80;99.90;;;;;;5070630;28;20471;-50
2023/04/30 04:50:46;;;;;;;9.43;8.53;;;11.80;99.90;;;;;;5070732;28;20486;-50
2023/04/30 04:53:13;;;;;;;9.77;8.77;;;11.80;99.90;;;;;;5070454;28;20530;-50
2023/04/30 04:55:40;;;;;;;9.23;8.17;;;11.80;99.90;;;;;;5070666;28;20470;-51
2023/04/30 04:58:07;;;;;;;9.80;8.33;;;11.60;99.90;;;;;;5070192;28;20507;-51
2023/04/30 05:00:33;;;;;;;9.10;8.20;;;11.70;99.90;;;;;;5070596;28;20439;-50
2023/04/30 05:03:00;;;;;;;10.03;9.13;;;11.70;99.90;;;;;;5070549;28;20955;-51
2023/04/30 05:05:27;;;;;;;10.00;9.00;;;11.70;99.90;;;;;;5070842;28;20756;-50
2023/04/30 05:07:55;;;;;;;10.33;9.13;;;11.70;99.90;;;;;;5069810;28;20538;-51
2023/04/30 05:10:22;;;;;;;10.13;9.17;;;11.60;99.90;;;;;;5070709;28;21002;-50
2023/04/30 05:12:49;;;;;;;11.97;10.30;;;11.60;99.90;;;;;;5070301;28;20528;-50
2023/04/30 05:15:16;;;;;;;10.77;8.80;;;11.60;99.90;;;;;;5070524;28;20449;-51
2023/04/30 05:17:43;;;;;;;10.13;9.10;;;11.70;99.90;;;;;;5070331;28;20574;-50
2023/04/30 05:20:12;;;;;;;9.40;8.50;;;11.80;99.90;;;;;;5069733;28;20793;-52
2023/04/30 05:22:39;;;;;;;10.77;9.60;;;11.70;99.90;;;;;;5070051;28;20454;-50
2023/04/30 05:25:08;;;;;;;10.27;9.13;;;11.70;99.90;;;;;;5073920;28;20490;-50
2023/04/30 05:27:36;;;;;;;11.00;9.90;;;11.60;99.90;;;;;;5074358;28;20505;-51
2023/04/30 05:30:03;;;;;;;10.63;9.63;;;11.60;99.90;;;;;;5073950;28;20952;-51
2023/04/30 05:32:30;;;;;;;10.10;8.90;;;11.40;99.90;;;;;;5073310;28;20538;-50
2023/04/30 05:34:57;;;;;;;11.90;10.20;;;11.40;99.90;;;;;;5073486;28;20699;-50
2023/04/30 05:37:23;;;;;;;11.67;10.47;;;11.20;99.90;;;;;;5073912;28;20561;-51
2023/04/30 05:39:52;;;;;;;11.03;9.93;;;11.10;99.90;;;;;;5073753;28;20515;-51
2023/04/30 05:42:20;;;;;;;11.37;10.20;;;11.20;99.90;;;;;;5074187;28;20513;-51
2023/04/30 05:44:49;;;;;;;10.60;9.50;;;11.30;99.90;;;;;;5073699;28;20552;-53
2023/04/30 05:47:16;;;;;;;11.20;10.10;;;11.30;99.90;;;;;;5072900;28;20503;-51
2023/04/30 05:49:42;;;;;;;9.70;8.70;;;11.30;99.90;;;;;;5073488;28;20468;-51
2023/04/30 05:52:10;;;;;;;12.57;10.07;;;11.20;99.90;;;;;;5073873;28;20531;-50
2023/04/30 05:54:36;;;;;;;12.07;9.93;;;11.20;99.90;;;;;;5073882;28;20538;-50
2023/04/30 05:57:04;;;;;;;10.80;9.67;;;11.30;99.90;;;;;;5073499;28;20565;-51
2023/04/30 05:59:32;;;;;;;11.10;9.53;;;11.40;99.90;;;;;;5073486;28;21047;-51
2023/04/30 06:01:59;;;;;;;12.00;10.80;;;11.40;99.90;;;;;;5073476;28;20447;-52
2023/04/30 06:04:26;;;;;;;11.13;9.93;;;11.50;99.90;;;;;;5073382;28;20534;-51
2023/04/30 06:06:53;;;;;;;11.90;10.70;;;11.60;99.90;;;;;;5073450;28;20946;-51
2023/04/30 06:09:20;;;;;;;11.20;10.10;;;11.70;99.90;;;;;;5073025;28;20504;-51
2023/04/30 06:11:49;;;;;;;11.27;10.10;;;11.80;99.90;;;;;;5073529;28;20532;-52
2023/04/30 06:14:16;;;;;;;11.60;9.97;;;11.80;99.90;;;;;;5079015;28;21026;-51
2023/04/30 06:16:45;;;;;;;11.97;10.77;;;11.80;99.90;;;;;;5081249;28;20477;-52
2023/04/30 06:19:12;;;;;;;11.03;9.80;;;11.90;99.90;;;;;;5082583;28;20443;-52
2023/04/30 06:21:39;;;;;;;12.03;10.77;;;11.80;99.90;;;;;;5083055;28;20472;-51
2023/04/30 06:24:06;;;;;;;11.50;10.20;;;11.90;99.90;;;;;;5080473;28;20511;-51
2023/04/30 06:26:33;;;;;;;12.77;11.03;;;11.90;99.90;;;;;;5082927;28;21029;-52
2023/04/30 06:29:00;;;;;;;10.73;9.50;;;11.90;99.90;;;;;;5080881;28;21041;-52
2023/04/30 06:31:27;;;;;;;12.50;10.57;;;11.90;99.90;;;;;;5072311;28;20546;-51
2023/04/30 06:33:55;;;;;;;13.03;11.07;;;12.00;99.90;;;;;;5072223;28;20943;-51
2023/04/30 06:36:22;;;;;;;12.30;10.70;;;12.00;99.90;;;;;;5073045;28;20484;-52
2023/04/30 06:38:49;;;;;;;12.60;11.30;;;12.00;99.90;;;;;;5072571;28;21065;-51
2023/04/30 06:41:16;;;;;;;13.67;12.37;;;12.00;99.90;;;;;;5072817;28;20467;-52
2023/04/30 06:43:43;;;;;;;12.90;11.70;;;12.00;99.90;;;;;;5072639;28;20527;-51
2023/04/30 06:46:10;;;;;;;12.53;11.33;;;12.00;99.90;;;;;;5074544;28;20444;-53
2023/04/30 06:48:37;;;;;;;11.40;9.90;;;12.10;99.90;;;;;;5082854;28;20483;-52
2023/04/30 06:51:06;;;;;;;12.27;11.07;;;12.10;99.90;;;;;;5082217;28;20939;-51
2023/04/30 06:53:32;;;;;;;11.87;10.73;;;12.20;99.90;;;;;;5081207;28;20484;-54
2023/04/30 06:56:00;;;;;;;12.37;11.10;;;12.20;99.90;;;;;;5082662;28;20542;-52
2023/04/30 06:58:26;;;;;;;12.10;11.00;;;12.20;99.90;;;;;;5082317;28;20538;-52
2023/04/30 07:00:53;;;;;;;12.50;11.20;;;12.20;99.90;;;;;;5084131;28;20523;-51
2023/04/30 07:03:20;;;;;;;13.23;11.77;;;12.20;99.90;;;;;;5092382;28;20472;-52
2023/04/30 07:05:47;;;;;;;11.83;10.63;;;12.20;99.90;;;;;;5086478;28;20449;-51
2023/04/30 07:08:16;;;;;;;13.63;12.33;;;12.20;99.90;;;;;;5082837;28;20456;-51
2023/04/30 07:10:44;;;;;;;13.13;11.67;;;12.20;99.90;;;;;;5092666;28;20534;-51
2023/04/30 07:13:12;;;;;;;12.30;11.03;;;11.90;99.90;;;;;;5091852;28;20456;-53
2023/04/30 07:15:39;;;;;;;15.40;13.30;;;12.00;99.90;;;;;;5092575;28;20866;-51
2023/04/30 07:18:06;;;;;;;12.70;11.40;;;12.10;99.90;;;;;;5091620;28;20533;-52
2023/04/30 07:20:33;;;;;;;13.53;12.13;;;12.10;99.90;;;;;;5092006;28;20540;-52
2023/04/30 07:23:02;;;;;;;13.90;12.40;;;12.10;99.90;;;;;;5080916;28;20523;-52
2023/04/30 07:25:32;;;;;;;14.07;12.03;;;12.10;99.90;;;;;;5071696;28;20455;-51
2023/04/30 07:28:00;;;;;;;14.90;12.93;;;12.10;99.90;;;;;;5071726;28;20464;-51
2023/04/30 07:30:27;;;;;;;14.20;12.80;;;12.10;99.90;;;;;;5071777;28;20501;-51
2023/04/30 07:32:56;;;;;;;13.90;12.50;;;12.10;99.90;;;;;;5070506;28;20494;-53
2023/04/30 07:35:25;;;;;;;12.30;11.10;;;12.10;99.90;;;;;;5069870;28;20468;-51
2023/04/30 07:37:54;;;;;;;12.43;11.13;;;12.10;99.90;;;;;;5079350;28;21081;-50
2023/04/30 07:40:24;;;;;;;12.97;11.60;;;12.20;99.90;;;;;;5087381;28;20466;-51
2023/04/30 07:42:53;;;;;;;13.00;11.60;;;12.20;99.90;;;;;;5087752;28;20438;-51
2023/04/30 07:45:20;;;;;;;13.50;12.23;;;12.40;99.90;;;;;;5087060;28;20475;-52
2023/04/30 07:47:48;;;;;;;11.73;10.53;;;12.40;99.90;;;;;;5087097;28;21090;-52
2023/04/30 07:50:17;;;;;;;12.50;9.97;;;12.40;99.90;;;;;;5087424;28;20443;-52
2023/04/30 07:52:44;;;;;;;12.67;11.37;;;12.50;99.90;;;;;;5081773;28;20871;-54
2023/04/30 07:55:11;;;;;;;12.00;10.83;;;12.50;99.90;;;;;;5090245;28;20527;-52
2023/04/30 07:57:38;;;;;;;12.53;11.23;;;12.30;99.90;;;;;;5091066;28;20558;-51
2023/04/30 08:00:08;;;;;;;12.03;10.07;;;12.50;99.90;;;;;;5090722;28;20481;-54
2023/04/30 08:02:36;;;;;;;11.50;10.27;;;12.60;99.90;;;;;;5086718;28;20523;-52
2023/04/30 08:05:03;;;;;;;11.73;9.93;;;12.60;99.90;;;;;;5071844;28;20836;-51
2023/04/30 08:07:30;;;;;;;11.20;8.90;;;12.70;99.90;;;;;;5072008;28;20476;-52
2023/04/30 08:09:57;;;;;;;11.60;10.47;;;12.70;99.90;;;;;;5072164;28;20452;-51
2023/04/30 08:12:24;;;;;;;11.30;10.10;;;12.70;99.90;;;;;;5075015;28;20974;-51
2023/04/30 08:14:59;;;;;;;11.50;10.10;;;12.80;99.90;;;;;;5091044;28;20447;-52
2023/04/30 08:17:27;;;;;;;11.33;10.23;;;12.80;99.90;;;;;;5090798;28;20490;-52
2023/04/30 08:19:54;;;;;;;10.57;9.50;;;12.80;99.90;;;;;;5091024;28;20494;-52
2023/04/30 08:22:23;;;;;;;10.10;9.10;;;12.90;99.90;;;;;;5090571;28;20451;-53
2023/04/30 08:24:50;;;;;;;10.17;9.17;;;12.90;99.90;;;;;;5091700;28;20541;-52
2023/04/30 08:27:17;;;;;;;10.87;9.80;;;12.90;99.90;;;;;;5091160;28;20516;-52
2023/04/30 08:29:43;;;;;;;9.67;8.70;;;13.00;99.90;;;;;;5087360;28;20437;-51
2023/04/30 08:32:10;;;;;;;10.73;9.60;;;13.10;99.90;;;;;;5071929;28;20963;-53
2023/04/30 08:34:40;;;;;;;9.47;8.50;;;13.20;99.90;;;;;;5072449;28;20468;-52
2023/04/30 08:37:07;;;;;;;9.03;8.13;;;13.20;99.90;;;;;;5071954;28;20468;-54
2023/04/30 08:39:34;;;;;;;8.83;8.00;;;13.20;99.90;;;;;;5071493;28;20500;-51
2023/04/30 08:42:02;;;;;;;9.40;8.47;;;13.20;99.90;;;;;;5071827;28;21027;-51
2023/04/30 08:44:30;;;;;;;9.60;8.70;;;13.30;99.90;;;;;;5090349;28;20442;-52
2023/04/30 08:46:57;;;;;;;9.60;8.60;;;13.40;99.90;;;;;;5090806;28;20527;-51
2023/04/30 08:49:25;;;;;;;8.07;7.13;;;13.30;99.90;;;;;;5090580;28;20443;-51
2023/04/30 08:51:54;;;;;;;9.03;8.10;;;13.40;99.90;;;;;;5090868;28;20482;-53
2023/04/30 08:54:22;;;;;;;9.23;8.30;;;13.30;99.90;;;;;;5089673;28;20535;-52
2023/04/30 08:56:49;;;;;;;9.00;8.20;;;13.30;99.90;;;;;;5090052;28;20522;-52
2023/04/30 08:59:16;;;;;;;8.23;7.43;;;13.40;99.90;;;;;;5093910;28;20562;-52
2023/04/30 09:01:43;;;;;;;7.87;7.10;;;13.50;99.90;;;;;;5094957;28;20468;-51
2023/04/30 09:04:10;;;;;;;8.33;7.20;;;13.30;99.90;;;;;;5094740;28;20848;-52
2023/04/30 09:06:37;;;;;;;7.90;7.20;;;13.20;99.90;;;;;;5095886;28;20635;-52
2023/04/30 09:09:11;;;;;;;8.30;7.30;;;13.40;99.90;;;;;;5081560;28;20504;-53
2023/04/30 09:11:38;;;;;;;6.60;6.00;;;13.60;99.90;;;;;;5075525;28;20494;-51
2023/04/30 09:14:06;;;;;;;6.77;5.97;;;13.80;99.90;;;;;;5075136;28;20867;-51
2023/04/30 09:16:46;;;;;;;7.03;6.30;;;13.80;99.90;;;;;;5075421;28;20814;-51
2023/04/30 09:19:26;;;;;;;5.63;5.20;;;13.90;99.90;;;;;;5076231;28;20982;-52
2023/04/30 09:21:54;;;;;;;6.43;5.83;;;14.00;99.90;;;;;;5075752;28;20511;-53
2023/04/30 09:24:23;;;;;;;6.33;5.83;;;14.10;99.90;;;;;;5075126;28;20870;-53
2023/04/30 09:26:51;;;;;;;5.80;5.20;;;14.20;99.90;;;;;;5074708;28;20472;-52
2023/04/30 09:29:17;;;;;;;6.57;5.97;;;14.30;99.90;;;;;;5074015;28;20879;-54
2023/04/30 09:31:46;;;;;;;7.13;6.43;;;14.20;99.90;;;;;;5074416;28;20518;-52
2023/04/30 09:34:14;;;;;;;5.40;4.90;;;14.20;99.90;;;;;;5095893;22;20572;-55
2023/04/30 09:36:53;;;;;;;5.50;5.00;;;14.10;99.90;;;;;;5072154;28;20479;-56
2023/04/30 09:39:22;;;;;;;4.90;4.37;;;14.30;99.90;;;;;;5071983;28;20471;-56
2023/04/30 09:41:51;;;;;;;6.00;5.40;;;14.40;99.90;;;;;;5072757;28;20478;-56
2023/04/30 09:44:28;;;;;;;5.83;5.20;;;14.50;99.90;;;;;;5072057;28;20456;-56
2023/04/30 09:46:57;;;;;;;5.57;5.07;;;14.80;99.90;;;;;;5072208;28;20939;-55
2023/04/30 09:49:24;;;;;;;5.80;5.17;;;15.00;99.90;;;;;;5073159;28;20441;-55
2023/04/30 09:51:55;;;;;;;4.73;4.33;;;15.20;99.90;;;;;;5073595;28;20440;-55
2023/04/30 09:54:26;;;;;;;4.93;4.43;;;15.00;99.90;;;;;;5073127;28;20463;-56
2023/04/30 09:56:54;;;;;;;5.10;4.70;;;15.10;99.90;;;;;;5073502;28;20445;-56
2023/04/30 09:59:22;;;;;;;5.20;4.70;;;15.30;99.90;;;;;;5072153;28;20547;-56
2023/04/30 10:01:51;;;;;;;4.53;4.13;;;15.20;99.90;;;;;;5071863;28;20444;-55
2023/04/30 10:04:19;;;;;;;7.50;6.80;;;15.30;99.90;;;;;;5071300;28;20864;-56
2023/04/30 10:06:46;;;;;;;4.60;4.20;;;15.40;99.90;;;;;;5071878;28;21034;-55
2023/04/30 10:09:14;;;;;;;7.03;6.33;;;15.50;99.90;;;;;;5070801;28;20461;-57
2023/04/30 10:11:44;;;;;;;5.23;3.93;;;15.80;99.90;;;;;;5071908;28;20478;-55
2023/04/30 10:14:12;;;;;;;3.60;3.30;;;16.00;99.90;;;;;;5072361;28;20489;-55
2023/04/30 10:16:47;;;;;;;4.67;4.27;;;16.00;99.90;;;;;;5073035;28;20480;-55
2023/04/30 10:19:18;;;;;;;3.80;3.50;;;15.80;99.90;;;;;;5072823;28;20478;-55
2023/04/30 10:21:47;;;;;;;3.60;3.10;;;15.70;99.90;;;;;;5073167;28;20535;-54
2023/04/30 10:24:18;;;;;;;3.70;3.40;;;15.50;99.90;;;;;;5072026;28;20468;-55
2023/04/30 10:26:47;;;;;;;3.80;3.50;;;15.40;99.90;;;;;;5073397;28;20449;-55
2023/04/30 10:29:15;;;;;;;3.57;3.27;;;15.40;99.90;;;;;;5072749;28;20468;-55
2023/04/30 10:31:45;;;;;;;2.60;2.40;;;15.50;99.90;;;;;;5073218;28;20451;-55
2023/04/30 10:34:21;;;;;;;2.90;2.70;;;15.80;99.90;;;;;;5072278;28;20504;-55
2023/04/30 10:36:52;;;;;;;3.90;3.47;;;15.90;99.90;;;;;;5072957;28;20471;-55
2023/04/30 10:39:20;;;;;;;3.97;3.30;;;15.80;99.90;;;;;;5072004;28;20477;-56
2023/04/30 10:41:48;;;;;;;3.80;3.33;;;16.00;99.90;;;;;;5072898;28;20448;-55
2023/04/30 10:44:21;;;;;;;3.20;2.93;;;16.20;99.90;;;;;;5071587;28;20480;-55
2023/04/30 10:46:48;;;;;;;4.20;3.70;;;16.30;99.90;;;;;;5071115;28;20495;-55
2023/04/30 10:49:15;;;;;;;5.83;2.77;;;16.60;99.90;;;;;;5068400;28;20495;-56
2023/04/30 10:51:53;;;;;;;3.30;3.00;;;16.60;99.90;;;;;;5071756;28;20994;-55
2023/04/30 10:54:25;;;;;;;1.73;1.63;;;16.40;99.90;;;;;;5069604;28;20518;-55
2023/04/30 10:56:55;;;;;;;1.70;1.53;;;16.50;99.90;;;;;;5069861;28;20997;-56
2023/04/30 10:59:23;;;;;;;1.90;1.60;;;16.50;99.90;;;;;;5069387;28;20574;-56
2023/04/30 11:01:58;;;;;;;1.87;1.60;;;16.50;99.90;;;;;;5070731;28;20452;-55
2023/04/30 11:04:26;;;;;;;1.60;1.40;;;16.50;99.90;;;;;;5071865;28;20999;-55
2023/04/30 11:07:08;;;;;;;1.77;1.50;;;16.70;99.90;;;;;;5070926;28;20467;-55
2023/04/30 11:09:40;;;;;;;2.40;1.97;;;16.80;99.90;;;;;;5070591;28;20435;-55
2023/04/30 11:12:14;;;;;;;5.03;1.90;;;16.80;99.90;;;;;;5071819;28;20528;-56
2023/04/30 11:14:42;;;;;;;2.90;2.67;;;17.00;99.90;;;;;;5071490;28;20980;-55
2023/04/30 11:17:11;;;;;;;2.50;2.30;;;17.00;99.90;;;;;;5070814;28;20466;-55
2023/04/30 11:19:47;;;;;;;2.37;2.17;;;17.10;99.90;;;;;;5071889;28;20485;-55
2023/04/30 11:22:23;;;;;;;2.87;2.30;;;17.10;99.90;;;;;;5068990;28;20450;-56
2023/04/30 11:24:51;;;;;;;2.40;2.20;;;17.40;99.90;;;;;;5069930;28;20561;-55
2023/04/30 11:27:22;;;;;;;2.33;2.13;;;17.40;99.90;;;;;;5071227;28;20478;-55
2023/04/30 11:29:50;;;;;;;2.10;1.60;;;17.40;99.90;;;;;;5070682;28;20458;-56
2023/04/30 11:32:18;;;;;;;3.43;2.27;;;17.40;99.90;;;;;;5069990;28;20447;-56
2023/04/30 11:34:45;;;;;;;2.33;1.70;;;17.40;99.90;;;;;;5069829;28;20503;-55
2023/04/30 11:37:14;;;;;;;2.20;2.00;;;17.10;99.90;;;;;;5070719;28;20532;-55
2023/04/30 11:39:43;;;;;;;2.03;1.70;;;17.50;99.90;;;;;;5070582;28;21000;-55
2023/04/30 11:42:10;;;;;;;2.40;1.80;;;17.40;99.90;;;;;;5071493;28;20450;-55
2023/04/30 11:44:38;;;;;;;2.00;1.80;;;17.40;99.90;;;;;;5071031;28;20513;-54
2023/04/30 11:47:05;;;;;;;1.90;1.70;;;17.40;99.90;;;;;;5070514;28;20445;-55
2023/04/30 11:49:33;;;;;;;1.77;1.67;;;17.10;99.90;;;;;;5070857;28;20439;-56
2023/04/30 11:52:00;;;;;;;1.67;1.57;;;17.10;99.90;;;;;;5071380;28;20454;-55
2023/04/30 11:54:27;;;;;;;1.77;1.37;;;17.40;99.90;;;;;;5070963;28;20493;-56
2023/04/30 11:56:59;;;;;;;2.37;1.57;;;17.50;99.90;;;;;;5071249;28;20477;-55
2023/04/30 11:59:26;;;;;;;1.77;1.50;;;17.40;99.90;;;;;;5070726;28;20477;-55
2023/04/30 12:01:55;;;;;;;2.20;1.37;;;17.50;99.90;;;;;;5070635;28;20478;-55
2023/04/30 12:04:22;;;;;;;2.30;1.50;;;17.50;99.90;;;;;;5070989;28;20493;-56
2023/04/30 12:06:49;;;;;;;1.60;1.20;;;17.30;99.90;;;;;;5071286;28;20478;-56
2023/04/30 12:09:15;;;;;;;1.93;1.73;;;17.30;99.90;;;;;;5071236;28;20871;-56
2023/04/30 12:11:42;;;;;;;1.93;1.50;;;17.50;99.90;;;;;;5071251;28;20493;-55
2023/04/30 12:14:11;;;;;;;1.47;1.30;;;17.70;99.90;;;;;;5071110;28;21061;-55
2023/04/30 12:16:44;;;;;;;1.83;1.60;;;17.80;99.90;;;;;;5070914;28;20447;-56
2023/04/30 12:19:12;;;;;;;2.40;2.20;;;17.80;99.90;;;;;;5071142;28;20541;-55
2023/04/30 12:21:41;;;;;;;3.47;2.17;;;17.50;99.90;;;;;;5071560;28;20478;-55
2023/04/30 12:24:08;;;;;;;1.60;1.40;;;17.70;99.90;;;;;;5070435;28;20495;-55
2023/04/30 12:26:36;;;;;;;1.63;1.27;;;17.50;99.90;;;;;;5070861;28;20534;-55
2023/04/30 12:29:04;;;;;;;2.20;1.80;;;17.60;99.90;;;;;;5071062;28;20448;-56
2023/04/30 12:31:32;;;;;;;2.00;1.80;;;17.40;99.90;;;;;;5070728;28;20503;-55
2023/04/30 12:34:04;;;;;;;1.40;1.30;;;17.50;99.90;;;;;;5070684;28;20482;-55
2023/04/30 12:36:33;;;;;;;2.00;1.50;;;17.60;99.90;;;;;;5071182;28;20472;-56
2023/04/30 12:39:07;;;;;;;1.73;1.23;;;17.60;99.90;;;;;;5071050;28;20740;-54
2023/04/30 12:41:38;;;;;;;1.60;1.30;;;17.50;99.90;;;;;;5070780;28;20437;-54
2023/04/30 12:44:17;;;;;;;1.97;1.80;;;17.40;99.90;;;;;;5070668;28;20479;-55
2023/04/30 12:46:45;;;;;;;1.57;1.37;;;17.60;99.90;;;;;;5070478;28;20481;-54